ノヴォシビルスク の空港の天気 - METARとTAF

トルマチェヴォ空港(ノヴォシビルスク) ( UNNT / OVB ) - ロシア ノヴォシビルスク
飛行場実況気象(Metar)
観測時間05/28 06:30 OMST (05/28 00:30 UTC)
風向・風速西 2m/s
視程10km以上
天気現象
なし
気温7℃
湿度87%
気圧1025hPa
METARUNNT 280030Z 26002MPS CAVOK 07/05 Q1025 R25/090070 R16/090070 NOSIG RMK QFE759/1012
過去の天気等 Google飛行場航空写真 Wunderground天気予報

過去48時間のMETAR

飛行場予報(TAF)
発表時間: 5/28 05:00 OMST (5/27 23:00 UTC)
予報対象時間: 28日6時 OMST ~ 29日6時 OMST
風向・風速西 3m/s 瞬間風速 8m/s
視程8000m
全天の4割程度の積乱雲 雲底高度 1550m
28日8時 OMST ~ 28日10時 OMST に徐々に
視程10km以上
TAF UNNT 272300Z 2800/2824 28003G08MPS 8000 SCT051CB
BECMG 2802/2804 9999